createdAt,value
2023-02-07T00:01:44.868Z,21.83
2023-02-07T00:03:46.227Z,21.81
2023-02-07T00:05:47.559Z,21.90
2023-02-07T00:07:48.851Z,21.91
2023-02-07T00:09:50.680Z,21.92
2023-02-07T00:11:52.069Z,21.85
2023-02-07T00:13:53.428Z,21.77
2023-02-07T00:15:54.837Z,21.70
2023-02-07T00:17:56.156Z,21.64
2023-02-07T00:19:57.505Z,21.59
2023-02-07T00:21:58.816Z,21.53
2023-02-07T00:24:00.232Z,21.50
2023-02-07T00:26:01.558Z,21.48
2023-02-07T00:28:03.062Z,21.47
2023-02-07T00:30:04.447Z,21.44
2023-02-07T00:32:05.751Z,21.42
2023-02-07T00:34:07.056Z,21.39
2023-02-07T00:36:08.375Z,21.42
2023-02-07T00:38:09.687Z,21.41
2023-02-07T00:40:11.006Z,21.41
2023-02-07T00:42:12.340Z,21.39
2023-02-07T00:44:13.713Z,21.38
2023-02-07T00:46:15.055Z,21.34
2023-02-07T00:48:16.384Z,20.42
2023-02-07T00:50:17.712Z,21.33
2023-02-07T00:52:19.014Z,21.33
2023-02-07T00:54:20.318Z,21.32
2023-02-07T00:56:21.648Z,21.32
2023-02-07T00:58:22.971Z,21.35
2023-02-07T01:00:24.308Z,21.36
2023-02-07T01:02:25.613Z,21.36
2023-02-07T01:04:27.043Z,21.40
2023-02-07T01:06:29.504Z,21.48
2023-02-07T01:08:30.830Z,21.57
2023-02-07T01:10:32.132Z,21.62
2023-02-07T01:12:33.444Z,21.66
2023-02-07T01:14:34.828Z,21.70
2023-02-07T01:16:36.160Z,21.74
2023-02-07T01:18:37.500Z,21.76
2023-02-07T01:20:38.792Z,21.79
2023-02-07T01:22:40.095Z,21.81
2023-02-07T01:24:41.652Z,21.83
2023-02-07T01:26:42.940Z,21.80
2023-02-07T01:28:44.246Z,21.84
2023-02-07T01:30:45.748Z,21.82
2023-02-07T01:32:47.099Z,21.78
2023-02-07T01:34:48.443Z,21.73
2023-02-07T01:36:49.758Z,21.70
2023-02-07T01:38:51.067Z,21.67
2023-02-07T01:40:52.748Z,21.65
2023-02-07T01:42:54.047Z,21.58
2023-02-07T01:44:55.376Z,21.52
2023-02-07T01:46:56.686Z,21.47
2023-02-07T01:48:58.044Z,21.44
2023-02-07T01:51:00.621Z,21.41
2023-02-07T01:53:02.198Z,21.38
2023-02-07T01:55:03.556Z,21.37
2023-02-07T01:57:04.911Z,21.38
2023-02-07T01:59:07.109Z,21.34
2023-02-07T02:01:08.429Z,21.22
2023-02-07T02:03:09.790Z,21.22
2023-02-07T02:05:11.092Z,21.26
2023-02-07T02:07:12.396Z,21.24
2023-02-07T02:09:13.724Z,21.21
2023-02-07T02:11:15.070Z,21.21
2023-02-07T02:13:17.016Z,21.20
2023-02-07T02:15:18.307Z,21.21
2023-02-07T02:17:19.696Z,21.22
2023-02-07T02:19:21.031Z,21.24
2023-02-07T02:21:22.359Z,21.31
2023-02-07T02:23:23.657Z,21.39
2023-02-07T02:25:24.986Z,21.47
2023-02-07T02:27:26.324Z,21.51
2023-02-07T02:29:27.661Z,21.58
2023-02-07T02:31:28.994Z,21.61
2023-02-07T02:33:30.322Z,21.68
2023-02-07T02:35:31.639Z,21.75
2023-02-07T02:37:33.013Z,21.79
2023-02-07T02:39:34.349Z,21.83
2023-02-07T02:41:35.651Z,21.84
2023-02-07T02:43:36.984Z,21.86
2023-02-07T02:45:38.532Z,21.90
2023-02-07T02:47:39.986Z,21.97
2023-02-07T02:49:41.283Z,21.97
2023-02-07T02:51:42.580Z,21.90
2023-02-07T02:53:43.932Z,21.80
2023-02-07T02:55:45.258Z,21.74
2023-02-07T02:57:46.594Z,21.66
2023-02-07T02:59:47.893Z,21.60
2023-02-07T03:01:49.259Z,21.55
2023-02-07T03:03:50.574Z,21.53
2023-02-07T03:05:51.902Z,21.48
2023-02-07T03:07:53.196Z,21.47
2023-02-07T03:09:54.491Z,21.44
2023-02-07T03:11:55.789Z,21.42
2023-02-07T03:13:57.122Z,21.41
2023-02-07T03:15:58.501Z,21.43
2023-02-07T03:17:59.802Z,21.40
2023-02-07T03:20:01.137Z,21.39
2023-02-07T03:22:02.481Z,21.37
2023-02-07T03:24:03.803Z,21.37
2023-02-07T03:26:05.116Z,21.34
2023-02-07T03:28:06.452Z,21.33
2023-02-07T03:30:07.805Z,21.32
2023-02-07T03:32:09.118Z,21.37
2023-02-07T03:34:10.584Z,21.36
2023-02-07T03:36:11.911Z,21.39
2023-02-07T03:38:13.284Z,21.39
2023-02-07T03:40:14.620Z,21.42
2023-02-07T03:42:15.925Z,21.48
2023-02-07T03:44:17.234Z,21.28
2023-02-07T03:46:18.655Z,21.08
2023-02-07T03:48:20.004Z,20.90
2023-02-07T03:50:21.315Z,20.80
2023-02-07T03:52:22.637Z,20.73
2023-02-07T03:54:23.989Z,20.94
2023-02-07T03:56:25.335Z,20.93
2023-02-07T03:58:26.635Z,20.91
2023-02-07T04:00:27.968Z,20.79
2023-02-07T04:02:29.300Z,20.88
2023-02-07T04:04:30.607Z,21.03
2023-02-07T04:06:31.962Z,21.14
2023-02-07T04:08:33.301Z,21.21
2023-02-07T04:10:34.666Z,21.32
2023-02-07T04:12:35.996Z,21.38
2023-02-07T04:14:37.327Z,21.43
2023-02-07T04:16:38.664Z,21.47
2023-02-07T04:18:40.007Z,21.47
2023-02-07T04:20:41.310Z,21.48
2023-02-07T04:22:42.633Z,21.47
2023-02-07T04:24:43.942Z,21.47
2023-02-07T04:26:45.234Z,21.47
2023-02-07T04:28:46.543Z,21.45
2023-02-07T04:30:47.925Z,21.42
2023-02-07T04:32:49.296Z,21.37
2023-02-07T04:34:50.621Z,21.34
2023-02-07T04:36:51.912Z,21.31
2023-02-07T04:38:53.216Z,21.29
2023-02-07T04:40:54.515Z,21.28
2023-02-07T04:42:55.850Z,21.27
2023-02-07T04:44:57.241Z,21.22
2023-02-07T04:46:58.566Z,21.18
2023-02-07T04:48:59.912Z,21.13
2023-02-07T04:51:02.170Z,21.09
2023-02-07T04:53:03.482Z,21.05
2023-02-07T04:55:04.783Z,21.02
2023-02-07T04:57:06.133Z,20.98
2023-02-07T04:59:07.435Z,20.93
2023-02-07T05:01:08.790Z,20.90
2023-02-07T05:03:10.111Z,20.86
2023-02-07T05:05:11.412Z,20.80
2023-02-07T05:07:12.738Z,20.71
2023-02-07T05:09:14.082Z,20.64
2023-02-07T05:11:15.510Z,20.56
2023-02-07T05:13:16.890Z,20.45
2023-02-07T05:15:18.225Z,20.40
2023-02-07T05:17:20.073Z,20.34
2023-02-07T05:19:21.452Z,20.34
2023-02-07T05:21:22.779Z,20.33
2023-02-07T05:23:24.080Z,20.36
2023-02-07T05:25:25.410Z,20.41
2023-02-07T05:27:26.756Z,20.49
2023-02-07T05:29:28.102Z,20.61
2023-02-07T05:31:48.570Z,20.76
2023-02-07T05:33:49.936Z,20.86
2023-02-07T05:35:51.234Z,20.96
2023-02-07T05:37:52.555Z,21.03
2023-02-07T05:39:53.853Z,21.10
2023-02-07T05:41:55.255Z,21.15
2023-02-07T05:43:56.603Z,21.20
2023-02-07T05:45:57.927Z,21.22
2023-02-07T05:47:59.394Z,21.28
2023-02-07T05:50:00.744Z,21.32
2023-02-07T05:52:02.165Z,21.36
2023-02-07T05:54:03.465Z,21.41
2023-02-07T05:56:04.769Z,21.44
2023-02-07T05:58:06.151Z,21.45
2023-02-07T06:00:07.540Z,21.29
2023-02-07T06:02:09.014Z,21.45
2023-02-07T06:04:10.499Z,21.42
2023-02-07T06:06:11.846Z,21.37
2023-02-07T06:08:13.192Z,21.31
2023-02-07T06:10:14.493Z,21.27
2023-02-07T06:12:15.814Z,20.32
2023-02-07T06:14:17.151Z,21.21
2023-02-07T06:16:18.454Z,21.19
2023-02-07T06:18:19.771Z,21.16
2023-02-07T06:20:21.237Z,21.11
2023-02-07T06:22:22.635Z,21.06
2023-02-07T06:24:24.066Z,21.01
2023-02-07T06:26:25.400Z,20.97
2023-02-07T06:28:26.752Z,20.93
2023-02-07T06:30:28.073Z,20.87
2023-02-07T06:32:29.420Z,20.85
2023-02-07T06:34:30.722Z,20.82
2023-02-07T06:36:32.051Z,20.80
2023-02-07T06:38:33.361Z,20.79
2023-02-07T06:40:34.657Z,20.77
2023-02-07T06:42:35.982Z,20.76
2023-02-07T06:44:37.292Z,20.73
2023-02-07T06:46:38.639Z,20.72
2023-02-07T06:48:40.033Z,20.72
2023-02-07T06:50:41.354Z,20.71
2023-02-07T06:52:42.664Z,20.71
2023-02-07T06:54:43.989Z,20.72
2023-02-07T06:56:45.320Z,19.85
2023-02-07T06:58:46.825Z,20.78
2023-02-07T07:00:48.234Z,20.82
2023-02-07T07:02:49.854Z,20.87
2023-02-07T07:04:51.170Z,20.93
2023-02-07T07:06:52.646Z,20.98
2023-02-07T07:08:53.996Z,21.06
2023-02-07T07:10:55.352Z,21.13
2023-02-07T07:12:56.800Z,21.17
2023-02-07T07:14:58.112Z,21.17
2023-02-07T07:16:59.469Z,21.22
2023-02-07T07:19:00.777Z,21.22
2023-02-07T07:21:02.132Z,21.21
2023-02-07T07:23:03.509Z,21.21
2023-02-07T07:25:04.973Z,21.19
2023-02-07T07:27:06.277Z,21.20
2023-02-07T07:29:08.378Z,21.18
2023-02-07T07:31:09.838Z,21.12
2023-02-07T07:33:11.223Z,21.06
2023-02-07T07:35:12.634Z,21.04
2023-02-07T07:37:13.983Z,21.00
2023-02-07T07:39:17.041Z,20.98
2023-02-07T07:41:18.417Z,20.95
2023-02-07T07:43:19.727Z,20.90
2023-02-07T07:45:21.067Z,20.87
2023-02-07T07:47:22.386Z,20.82
2023-02-07T07:49:23.711Z,20.79
2023-02-07T07:51:25.032Z,20.75
2023-02-07T07:53:26.448Z,20.73
2023-02-07T07:55:27.838Z,20.73
2023-02-07T07:57:29.155Z,20.73
2023-02-07T07:59:30.461Z,20.73
2023-02-07T08:01:31.761Z,20.73
2023-02-07T08:03:33.093Z,20.73
2023-02-07T08:05:34.407Z,20.71
2023-02-07T08:07:35.741Z,20.70
2023-02-07T08:09:37.099Z,20.71
2023-02-07T08:11:38.450Z,20.72
2023-02-07T08:13:39.747Z,20.77
2023-02-07T08:15:41.079Z,20.81
2023-02-07T08:17:42.464Z,20.87
2023-02-07T08:19:43.790Z,20.92
2023-02-07T08:21:45.276Z,21.02
2023-02-07T08:23:46.615Z,21.10
2023-02-07T08:25:47.959Z,21.16
2023-02-07T08:27:49.280Z,21.21
2023-02-07T08:29:50.599Z,21.28
2023-02-07T08:31:52.052Z,21.31
2023-02-07T08:33:53.528Z,21.33
2023-02-07T08:35:54.840Z,21.32
2023-02-07T08:37:56.619Z,21.36
2023-02-07T08:39:58.169Z,21.37
2023-02-07T08:41:59.551Z,21.32
2023-02-07T08:44:00.851Z,21.27
2023-02-07T08:46:02.489Z,21.18
2023-02-07T08:48:03.853Z,21.12
2023-02-07T08:50:05.160Z,21.08
2023-02-07T08:52:06.475Z,21.04
2023-02-07T08:54:07.759Z,21.02
2023-02-07T08:56:09.099Z,21.01
2023-02-07T08:58:10.740Z,20.98
2023-02-07T09:00:12.601Z,20.96
2023-02-07T09:02:13.953Z,20.94
2023-02-07T09:04:15.283Z,20.90
2023-02-07T09:06:16.595Z,20.89
2023-02-07T09:08:18.849Z,20.89
2023-02-07T09:10:20.222Z,20.88
2023-02-07T09:12:21.537Z,20.87
2023-02-07T09:14:22.843Z,20.88
2023-02-07T09:16:24.537Z,20.87
2023-02-07T09:18:25.872Z,20.88
2023-02-07T09:20:27.546Z,20.87
2023-02-07T09:22:28.964Z,20.89
2023-02-07T09:24:30.267Z,20.89
2023-02-07T09:26:33.264Z,20.93
2023-02-07T09:28:35.038Z,20.98
2023-02-07T09:30:36.473Z,21.00
2023-02-07T09:32:37.864Z,21.04
2023-02-07T09:34:39.159Z,21.10
2023-02-07T09:36:40.504Z,21.15
2023-02-07T09:38:43.867Z,21.24
2023-02-07T09:40:45.292Z,21.32
2023-02-07T09:42:46.698Z,21.36
2023-02-07T09:44:48.145Z,21.45
2023-02-07T09:46:49.591Z,21.51
2023-02-07T09:48:50.892Z,21.55
2023-02-07T09:50:52.307Z,21.61
2023-02-07T09:52:53.665Z,21.64
2023-02-07T09:54:55.002Z,21.67
2023-02-07T09:56:56.311Z,21.67
2023-02-07T09:58:57.605Z,21.68
2023-02-07T10:00:58.954Z,21.67
2023-02-07T10:03:00.267Z,21.68
2023-02-07T10:05:01.605Z,21.66
2023-02-07T10:07:02.931Z,21.64
2023-02-07T10:09:04.264Z,21.60
2023-02-07T10:11:05.999Z,21.56
2023-02-07T10:13:08.709Z,21.53
2023-02-07T10:15:14.058Z,21.53
2023-02-07T10:17:25.815Z,21.48
2023-02-07T10:19:32.060Z,21.44
2023-02-07T10:21:33.367Z,21.42
2023-02-07T10:23:34.669Z,21.39
2023-02-07T10:25:36.006Z,21.36
2023-02-07T10:27:37.331Z,21.34
2023-02-07T10:29:38.665Z,21.32
2023-02-07T10:31:40.055Z,21.30
2023-02-07T10:33:41.422Z,21.28
2023-02-07T10:35:42.968Z,21.29
2023-02-07T10:37:44.277Z,21.28
2023-02-07T10:39:45.642Z,21.26
2023-02-07T10:41:46.998Z,21.27
2023-02-07T10:43:48.344Z,21.27
2023-02-07T10:45:54.338Z,21.29
2023-02-07T10:48:01.638Z,21.32
2023-02-07T10:50:02.966Z,21.35
2023-02-07T10:52:04.303Z,21.38
2023-02-07T10:54:07.690Z,21.43
2023-02-07T10:56:09.183Z,21.51
2023-02-07T10:58:22.444Z,21.60
2023-02-07T11:00:27.322Z,21.71
2023-02-07T11:02:28.745Z,21.74
2023-02-07T11:04:30.174Z,21.79
2023-02-07T11:06:32.141Z,21.86
2023-02-07T11:08:33.533Z,21.92
2023-02-07T11:10:35.032Z,21.97
2023-02-07T11:12:36.361Z,21.96
2023-02-07T11:14:40.093Z,21.94
2023-02-07T11:16:44.139Z,21.95
2023-02-07T11:18:45.958Z,21.92
2023-02-07T11:20:47.312Z,21.96
2023-02-07T11:22:48.619Z,21.94
2023-02-07T11:24:49.946Z,21.93
2023-02-07T11:26:51.899Z,21.86
2023-02-07T11:28:53.320Z,21.81
2023-02-07T11:30:55.943Z,21.76
2023-02-07T11:32:58.522Z,21.70
2023-02-07T11:35:02.132Z,21.67
2023-02-07T11:37:03.468Z,21.64
2023-02-07T11:39:04.760Z,21.59
2023-02-07T11:41:09.156Z,21.57
2023-02-07T11:43:10.464Z,21.54
2023-02-07T11:45:11.765Z,21.52
2023-02-07T11:47:13.320Z,21.49
2023-02-07T11:49:14.620Z,21.48
2023-02-07T11:51:15.965Z,21.44
2023-02-07T11:53:17.314Z,21.42
2023-02-07T11:55:18.621Z,21.38
2023-02-07T11:57:19.999Z,21.34
2023-02-07T11:59:22.063Z,21.32
2023-02-07T12:01:23.535Z,21.30
2023-02-07T12:03:24.928Z,21.27
2023-02-07T12:05:26.236Z,21.25
2023-02-07T12:07:27.530Z,21.25
2023-02-07T12:09:28.857Z,21.27
2023-02-07T12:11:30.295Z,21.31
2023-02-07T12:13:31.640Z,21.34
2023-02-07T12:15:33.209Z,21.43
2023-02-07T12:17:34.681Z,21.49
2023-02-07T12:19:35.980Z,21.52
2023-02-07T12:21:37.321Z,21.58
2023-02-07T12:23:42.802Z,21.64
2023-02-07T12:25:45.450Z,21.67
2023-02-07T12:27:46.794Z,21.70
2023-02-07T12:29:48.217Z,21.71
2023-02-07T12:31:49.621Z,21.70
2023-02-07T12:33:52.048Z,21.68
2023-02-07T12:35:57.507Z,21.65
2023-02-07T12:37:59.441Z,21.64
2023-02-07T12:40:00.842Z,21.60
2023-02-07T12:42:02.294Z,21.54
2023-02-07T12:44:05.433Z,21.52
2023-02-07T12:46:07.734Z,21.43
2023-02-07T12:48:09.045Z,21.36
2023-02-07T12:50:10.388Z,21.32
2023-02-07T12:52:11.684Z,21.26
2023-02-07T12:54:12.995Z,21.22
2023-02-07T12:56:14.357Z,21.21
2023-02-07T12:58:15.711Z,21.18
2023-02-07T13:00:17.043Z,21.17
2023-02-07T13:02:18.353Z,21.11
2023-02-07T13:04:19.780Z,21.08
2023-02-07T13:06:21.095Z,21.02
2023-02-07T13:08:22.386Z,20.98
2023-02-07T13:10:23.754Z,20.94
2023-02-07T13:12:25.092Z,20.89
2023-02-07T13:14:26.507Z,20.87
2023-02-07T13:16:27.962Z,20.85
2023-02-07T13:18:29.335Z,20.83
2023-02-07T13:20:30.651Z,20.83
2023-02-07T13:22:31.984Z,20.81
2023-02-07T13:24:33.308Z,20.83
2023-02-07T13:26:37.390Z,20.83
2023-02-07T13:28:38.817Z,20.81
2023-02-07T13:30:40.147Z,20.74
2023-02-07T13:32:41.542Z,20.67
2023-02-07T13:34:42.915Z,20.60
2023-02-07T13:36:44.326Z,20.51
2023-02-07T13:38:46.425Z,20.44
2023-02-07T13:40:47.755Z,20.45
2023-02-07T13:42:49.073Z,20.50
2023-02-07T13:44:50.424Z,20.56
2023-02-07T13:46:55.850Z,20.68
2023-02-07T13:48:57.162Z,20.81
2023-02-07T13:50:58.490Z,20.88
2023-02-07T13:52:59.837Z,20.95
2023-02-07T13:55:02.163Z,21.03
2023-02-07T13:57:22.143Z,21.08
2023-02-07T13:59:52.648Z,21.12
2023-02-07T14:01:53.943Z,21.19
2023-02-07T14:03:55.240Z,21.22
2023-02-07T14:05:56.636Z,21.24
2023-02-07T14:07:57.971Z,21.22
2023-02-07T14:09:59.417Z,21.23
2023-02-07T14:12:00.829Z,21.23
2023-02-07T14:14:02.136Z,21.27
2023-02-07T14:16:03.535Z,21.29
2023-02-07T14:18:04.883Z,21.34
2023-02-07T14:20:06.191Z,21.30
2023-02-07T14:22:07.524Z,20.42
2023-02-07T14:24:09.020Z,21.31
2023-02-07T14:26:10.409Z,21.33
2023-02-07T14:28:12.134Z,21.29
2023-02-07T14:30:13.453Z,21.22
2023-02-07T14:32:14.756Z,21.18
2023-02-07T14:34:16.112Z,21.13
2023-02-07T14:36:17.439Z,21.08
2023-02-07T14:38:18.735Z,21.01
2023-02-07T14:40:20.039Z,20.95
2023-02-07T14:42:21.367Z,20.90
2023-02-07T14:44:22.681Z,20.85
2023-02-07T14:46:24.167Z,20.80
2023-02-07T14:48:25.569Z,18.98
2023-02-07T14:50:30.477Z,16.38
2023-02-07T14:52:34.820Z,18.50
2023-02-07T14:54:36.130Z,20.11
2023-02-07T14:56:38.440Z,21.26
2023-02-07T14:58:39.981Z,21.95
2023-02-07T15:00:41.740Z,22.10
2023-02-07T15:02:43.273Z,22.28
2023-02-07T15:04:44.600Z,21.97
2023-02-07T15:06:45.947Z,21.96
2023-02-07T15:08:47.243Z,22.05
2023-02-07T15:10:48.596Z,22.19
2023-02-07T15:12:49.943Z,22.20
2023-02-07T15:14:51.288Z,22.12
2023-02-07T15:16:52.621Z,22.16
2023-02-07T15:18:54.022Z,22.16
2023-02-07T15:20:57.504Z,22.16
2023-02-07T15:22:59.736Z,22.20
2023-02-07T15:25:01.085Z,22.31
2023-02-07T15:27:02.389Z,22.30
2023-02-07T15:29:03.777Z,22.31
2023-02-07T15:31:05.279Z,22.32
2023-02-07T15:33:06.759Z,22.32
2023-02-07T15:35:08.049Z,22.32
2023-02-07T15:37:09.347Z,22.28
2023-02-07T15:39:11.008Z,22.20
2023-02-07T15:41:12.308Z,22.16
2023-02-07T15:43:13.640Z,22.10
2023-02-07T15:45:24.231Z,22.07
2023-02-07T15:47:25.876Z,21.84
2023-02-07T15:49:27.159Z,22.13
2023-02-07T15:51:28.445Z,22.20
2023-02-07T15:53:29.841Z,22.22
2023-02-07T15:55:31.195Z,22.18
2023-02-07T15:57:32.497Z,21.85
2023-02-07T15:59:34.000Z,21.92
2023-02-07T16:01:35.369Z,22.01
2023-02-07T16:03:36.717Z,22.09
2023-02-07T16:05:38.136Z,21.69
2023-02-07T16:07:40.428Z,21.79
2023-02-07T16:09:41.766Z,22.00
2023-02-07T16:11:43.100Z,22.02
2023-02-07T16:13:44.655Z,22.04
2023-02-07T16:15:45.947Z,22.04
2023-02-07T16:17:47.268Z,22.11
2023-02-07T16:19:48.572Z,22.24
2023-02-07T16:21:49.905Z,22.28
2023-02-07T16:23:51.398Z,22.23
2023-02-07T16:25:52.724Z,21.76
2023-02-07T16:27:54.182Z,22.01
2023-02-07T16:29:55.535Z,22.06
2023-02-07T16:31:56.923Z,22.18
2023-02-07T16:33:58.263Z,22.29
2023-02-07T16:35:59.595Z,22.28
2023-02-07T16:38:00.999Z,22.39
2023-02-07T16:40:02.296Z,22.46
2023-02-07T16:42:04.520Z,22.52
2023-02-07T16:44:05.848Z,22.40
2023-02-07T16:46:07.252Z,22.29
2023-02-07T16:48:08.568Z,22.49
2023-02-07T16:50:09.882Z,22.62
2023-02-07T16:52:11.181Z,22.71
2023-02-07T16:54:12.556Z,22.76
2023-02-07T16:56:13.867Z,22.72
2023-02-07T16:58:15.163Z,22.82
2023-02-07T17:00:16.521Z,22.92
2023-02-07T17:02:20.977Z,22.81
2023-02-07T17:04:22.353Z,22.75
2023-02-07T17:06:23.692Z,22.61
2023-02-07T17:08:30.107Z,22.53
2023-02-07T17:10:31.436Z,22.48
2023-02-07T17:12:32.731Z,22.16
2023-02-07T17:14:36.323Z,21.91
2023-02-07T17:16:40.680Z,21.87
2023-02-07T17:18:42.049Z,22.11
2023-02-07T17:20:43.387Z,22.25
2023-02-07T17:22:44.690Z,22.32
2023-02-07T17:24:47.672Z,22.29
2023-02-07T17:26:48.993Z,22.33
2023-02-07T17:28:50.346Z,22.37
2023-02-07T17:30:51.701Z,22.43
2023-02-07T17:32:53.052Z,22.36
2023-02-07T17:34:54.355Z,22.27
2023-02-07T17:36:55.655Z,22.28
2023-02-07T17:39:02.837Z,22.28
2023-02-07T17:41:04.161Z,22.31
2023-02-07T17:43:05.568Z,22.31
2023-02-07T17:45:06.995Z,22.33
2023-02-07T17:47:08.332Z,22.28
2023-02-07T17:49:09.618Z,22.02
2023-02-07T17:51:11.008Z,21.95
2023-02-07T17:53:15.740Z,22.11
2023-02-07T17:55:17.155Z,22.25
2023-02-07T17:57:18.456Z,22.31
2023-02-07T17:59:19.796Z,22.38
2023-02-07T18:01:21.200Z,22.44
2023-02-07T18:03:22.608Z,22.43
2023-02-07T18:05:23.993Z,22.47
2023-02-07T18:07:26.838Z,22.64
2023-02-07T18:09:31.118Z,22.69
2023-02-07T18:11:34.600Z,22.69
2023-02-07T18:13:35.955Z,22.76
2023-02-07T18:15:37.315Z,22.78
2023-02-07T18:17:38.678Z,22.78
2023-02-07T18:19:39.976Z,22.65
2023-02-07T18:21:41.318Z,22.68
2023-02-07T18:23:43.079Z,22.69
2023-02-07T18:25:47.508Z,22.66
2023-02-07T18:27:51.098Z,22.58
2023-02-07T18:29:58.460Z,22.55
2023-02-07T18:31:59.753Z,22.43
2023-02-07T18:34:01.056Z,22.44
2023-02-07T18:36:08.749Z,22.43
2023-02-07T18:38:10.140Z,22.37
2023-02-07T18:40:12.926Z,22.35
2023-02-07T18:42:17.453Z,22.35
2023-02-07T18:44:20.019Z,22.40
2023-02-07T18:46:24.464Z,22.36
2023-02-07T18:48:26.763Z,22.33
2023-02-07T18:50:28.056Z,22.34
2023-02-07T18:52:29.780Z,22.33
2023-02-07T18:54:34.003Z,22.31
2023-02-07T18:56:35.810Z,22.34
2023-02-07T18:58:37.744Z,22.36
2023-02-07T19:00:39.223Z,22.37
2023-02-07T19:02:40.739Z,22.38
2023-02-07T19:04:42.174Z,22.19
2023-02-07T19:06:43.571Z,21.94
2023-02-07T19:08:44.862Z,21.76
2023-02-07T19:10:46.159Z,21.69
2023-02-07T19:12:47.461Z,21.69
2023-02-07T19:14:54.732Z,22.05
2023-02-07T19:16:56.319Z,22.24
2023-02-07T19:18:57.637Z,22.35
2023-02-07T19:20:58.944Z,22.45
2023-02-07T19:23:00.254Z,22.56
2023-02-07T19:25:01.808Z,22.61
2023-02-07T19:27:05.755Z,22.70
2023-02-07T19:29:12.822Z,22.79
2023-02-07T19:31:17.897Z,22.81
2023-02-07T19:33:19.354Z,22.94
2023-02-07T19:35:20.719Z,22.82
2023-02-07T19:37:22.494Z,22.87
2023-02-07T19:39:23.796Z,22.46
2023-02-07T19:41:25.092Z,22.42
2023-02-07T19:43:26.393Z,22.49
2023-02-07T19:45:27.686Z,22.51
2023-02-07T19:47:29.063Z,22.50
2023-02-07T19:49:33.267Z,22.55
2023-02-07T19:51:34.608Z,22.57
2023-02-07T19:53:38.840Z,22.58
2023-02-07T19:55:42.799Z,22.62
2023-02-07T19:57:44.149Z,22.63
2023-02-07T19:59:48.306Z,22.59
2023-02-07T20:01:49.670Z,22.61
2023-02-07T20:03:51.253Z,22.50
2023-02-07T20:05:55.647Z,22.47
2023-02-07T20:07:56.967Z,22.49
2023-02-07T20:09:58.305Z,22.50
2023-02-07T20:11:59.827Z,22.53
2023-02-07T20:16:05.108Z,22.50
2023-02-07T20:18:15.395Z,22.44
2023-02-07T20:20:17.885Z,22.48
2023-02-07T20:22:19.234Z,22.37
2023-02-07T20:24:20.568Z,22.31
2023-02-07T20:26:21.857Z,22.38
2023-02-07T20:28:24.570Z,22.44
2023-02-07T20:30:28.686Z,22.46
2023-02-07T20:32:29.986Z,22.43
2023-02-07T20:34:31.293Z,22.47
2023-02-07T20:36:33.703Z,22.43
2023-02-07T20:38:35.119Z,22.45
2023-02-07T20:40:36.459Z,22.50
2023-02-07T20:42:37.747Z,22.56
2023-02-07T20:44:39.051Z,22.56
2023-02-07T20:46:40.986Z,22.33
2023-02-07T20:48:42.708Z,22.12
2023-02-07T20:50:44.006Z,22.01
2023-02-07T20:52:45.325Z,21.99
2023-02-07T20:54:47.705Z,21.98
2023-02-07T20:56:54.941Z,22.00
2023-02-07T20:58:57.955Z,21.98
2023-02-07T21:00:59.359Z,22.28
2023-02-07T21:03:00.688Z,22.48
2023-02-07T21:05:04.885Z,22.55
2023-02-07T21:09:07.623Z,22.53
2023-02-07T21:11:09.022Z,22.61
2023-02-07T21:13:10.327Z,22.57
2023-02-07T21:17:12.965Z,22.53
2023-02-07T21:19:14.850Z,22.55
2023-02-07T21:21:16.189Z,22.51
2023-02-07T21:23:17.509Z,22.50
2023-02-07T21:25:18.804Z,22.52
2023-02-07T21:27:20.135Z,22.54
2023-02-07T21:29:21.458Z,22.56
2023-02-07T21:31:22.873Z,22.43
2023-02-07T21:33:24.236Z,22.35
2023-02-07T21:35:25.582Z,22.30
2023-02-07T21:37:26.872Z,22.27
2023-02-07T21:39:28.166Z,22.24
2023-02-07T21:41:29.622Z,22.22
2023-02-07T21:43:30.935Z,18.77
2023-02-07T21:45:32.283Z,15.29
2023-02-07T21:47:33.681Z,16.33
2023-02-07T21:49:34.987Z,18.77
2023-02-07T21:51:36.332Z,19.95
2023-02-07T21:53:37.727Z,20.52
2023-02-07T21:55:44.955Z,20.86
2023-02-07T21:57:46.248Z,21.20
2023-02-07T21:59:47.639Z,21.45
2023-02-07T22:01:49.038Z,21.62
2023-02-07T22:03:50.410Z,21.73
2023-02-07T22:05:52.497Z,21.86
2023-02-07T22:07:53.838Z,21.95
2023-02-07T22:09:55.153Z,22.06
2023-02-07T22:11:56.497Z,22.10
2023-02-07T22:13:57.800Z,22.13
2023-02-07T22:15:59.167Z,22.17
2023-02-07T22:18:00.472Z,22.19
2023-02-07T22:20:01.824Z,22.19
2023-02-07T22:22:03.118Z,22.17
2023-02-07T22:24:04.416Z,22.16
2023-02-07T22:26:05.760Z,22.16
2023-02-07T22:28:07.059Z,22.13
2023-02-07T22:30:08.390Z,22.12
2023-02-07T22:32:09.754Z,22.07
2023-02-07T22:34:11.087Z,22.01
2023-02-07T22:36:12.518Z,21.94
2023-02-07T22:38:13.849Z,21.89
2023-02-07T22:40:15.136Z,21.83
2023-02-07T22:42:16.467Z,21.76
2023-02-07T22:44:17.984Z,21.75
2023-02-07T22:46:19.330Z,21.74
2023-02-07T22:48:20.673Z,21.68
2023-02-07T22:50:21.964Z,21.62
2023-02-07T22:52:23.285Z,21.54
2023-02-07T22:54:24.619Z,21.48
2023-02-07T22:56:25.942Z,21.42
2023-02-07T22:58:27.272Z,21.36
2023-02-07T23:00:28.623Z,21.31
2023-02-07T23:02:29.983Z,21.28
2023-02-07T23:04:31.347Z,21.24
2023-02-07T23:06:32.739Z,21.24
2023-02-07T23:08:34.050Z,21.24
2023-02-07T23:10:35.352Z,21.21
2023-02-07T23:12:36.806Z,21.19
2023-02-07T23:14:38.988Z,21.18
2023-02-07T23:16:40.574Z,21.16
2023-02-07T23:18:41.899Z,21.15
2023-02-07T23:20:43.403Z,21.12
2023-02-07T23:22:44.703Z,21.12
2023-02-07T23:24:46.118Z,21.11
2023-02-07T23:26:47.407Z,21.12
2023-02-07T23:28:49.139Z,21.12
2023-02-07T23:30:50.477Z,21.13
2023-02-07T23:32:51.824Z,21.14
2023-02-07T23:34:53.123Z,21.15
2023-02-07T23:36:54.460Z,21.18
2023-02-07T23:38:55.759Z,21.27
2023-02-07T23:40:57.619Z,21.35
2023-02-07T23:43:01.847Z,21.40
2023-02-07T23:45:03.146Z,21.47
2023-02-07T23:47:04.484Z,21.50
2023-02-07T23:49:05.778Z,21.58
2023-02-07T23:51:07.092Z,21.64
2023-02-07T23:53:08.406Z,21.67
2023-02-07T23:55:09.755Z,21.68
2023-02-07T23:57:11.083Z,21.66
2023-02-07T23:59:12.385Z,21.65
